createdAt,value
2018-12-13T00:01:03.552Z,0
2018-12-13T00:02:12.480Z,0
2018-12-13T00:03:21.136Z,0
2018-12-13T00:04:29.806Z,0
2018-12-13T00:05:38.464Z,0
2018-12-13T00:06:47.140Z,0
2018-12-13T00:07:55.806Z,0
2018-12-13T00:09:04.469Z,0
2018-12-13T00:10:13.201Z,0
2018-12-13T00:11:21.860Z,0
2018-12-13T00:12:30.534Z,0
2018-12-13T00:13:39.205Z,0
2018-12-13T00:14:47.871Z,0
2018-12-13T00:15:56.523Z,0
2018-12-13T00:17:05.207Z,0
2018-12-13T00:18:13.883Z,0
2018-12-13T00:19:22.552Z,0
2018-12-13T00:20:31.208Z,0
2018-12-13T00:21:39.945Z,0
2018-12-13T00:22:48.611Z,0
2018-12-13T00:23:57.275Z,0
2018-12-13T00:25:05.931Z,0
2018-12-13T00:26:14.602Z,0
2018-12-13T00:27:23.272Z,0
2018-12-13T00:28:31.943Z,0
2018-12-13T00:29:40.612Z,0
2018-12-13T00:30:49.266Z,0
2018-12-13T00:31:57.933Z,0
2018-12-13T00:33:06.594Z,0
2018-12-13T00:34:15.267Z,0
2018-12-13T00:35:24.187Z,0
2018-12-13T00:36:32.886Z,0
2018-12-13T00:37:46.348Z,0
2018-12-13T00:38:55.023Z,0
2018-12-13T00:40:03.687Z,0
2018-12-13T00:41:12.352Z,0
2018-12-13T00:42:21.019Z,0
2018-12-13T00:43:29.702Z,0
2018-12-13T00:44:38.428Z,0
2018-12-13T00:45:47.109Z,0
2018-12-13T00:46:55.772Z,0
2018-12-13T00:48:04.444Z,0
2018-12-13T00:49:13.113Z,0
2018-12-13T00:50:21.778Z,0
2018-12-13T00:51:30.445Z,0
2018-12-13T00:52:39.626Z,0
2018-12-13T00:53:48.302Z,0
2018-12-13T00:54:56.971Z,0
2018-12-13T00:56:05.635Z,0
2018-12-13T00:57:14.297Z,0
2018-12-13T00:58:22.967Z,0
2018-12-13T00:59:31.627Z,0
2018-12-13T01:00:40.550Z,0
2018-12-13T01:01:49.210Z,0
2018-12-13T01:02:57.878Z,0
2018-12-13T01:04:06.543Z,0
2018-12-13T01:05:15.210Z,0
2018-12-13T01:06:23.885Z,0
2018-12-13T01:07:32.554Z,0
2018-12-13T01:08:41.223Z,0
2018-12-13T01:09:50.145Z,0
2018-12-13T01:10:58.821Z,0
2018-12-13T01:12:07.552Z,0
2018-12-13T01:13:16.570Z,0
2018-12-13T01:14:25.237Z,0
2018-12-13T01:15:33.904Z,0
2018-12-13T01:16:42.563Z,0
2018-12-13T01:17:51.229Z,0
2018-12-13T01:18:59.896Z,0
2018-12-13T01:20:08.570Z,0
2018-12-13T01:21:22.711Z,0
2018-12-13T01:22:31.380Z,0
2018-12-13T01:23:40.302Z,0
2018-12-13T01:24:49.021Z,0
2018-12-13T01:25:57.693Z,0
2018-12-13T01:27:06.353Z,0
2018-12-13T01:28:15.283Z,0
2018-12-13T01:29:23.946Z,0
2018-12-13T01:30:32.617Z,0
2018-12-13T01:31:41.808Z,0
2018-12-13T01:32:50.477Z,0
2018-12-13T01:33:59.143Z,0
2018-12-13T01:35:07.821Z,0
2018-12-13T01:36:16.483Z,0
2018-12-13T01:37:25.150Z,0
2018-12-13T01:38:33.812Z,0
2018-12-13T01:39:42.475Z,0
2018-12-13T01:40:51.143Z,0
2018-12-13T01:41:59.813Z,0
2018-12-13T01:43:08.479Z,0
2018-12-13T01:44:17.134Z,0
2018-12-13T01:45:26.081Z,0
2018-12-13T01:46:34.741Z,0
2018-12-13T01:47:43.421Z,0
2018-12-13T01:48:52.081Z,0
2018-12-13T01:50:00.747Z,0
2018-12-13T01:51:09.411Z,0
2018-12-13T01:52:18.099Z,0
2018-12-13T01:53:26.762Z,0
2018-12-13T01:54:35.434Z,0
2018-12-13T01:55:44.100Z,0
2018-12-13T01:56:52.780Z,0
2018-12-13T01:58:01.441Z,0
2018-12-13T01:59:10.107Z,0
2018-12-13T02:00:18.770Z,0
2018-12-13T02:01:27.501Z,0
2018-12-13T02:02:36.174Z,0
2018-12-13T02:03:44.832Z,0
2018-12-13T02:04:53.502Z,0
2018-12-13T02:06:02.168Z,0
2018-12-13T02:07:10.843Z,0
2018-12-13T02:08:19.763Z,0
2018-12-13T02:09:28.446Z,0
2018-12-13T02:10:37.357Z,0
2018-12-13T02:11:46.040Z,0
2018-12-13T02:12:54.706Z,0
2018-12-13T02:14:03.376Z,0
2018-12-13T02:15:12.033Z,0
2018-12-13T02:16:20.698Z,0
2018-12-13T02:17:29.366Z,0
2018-12-13T02:18:38.067Z,0
2018-12-13T02:19:46.731Z,0
2018-12-13T02:20:55.391Z,0
2018-12-13T02:22:04.057Z,0
2018-12-13T02:23:12.723Z,0
2018-12-13T02:24:21.406Z,0
2018-12-13T02:25:30.068Z,0
2018-12-13T02:26:38.740Z,0
2018-12-13T02:27:47.400Z,0
2018-12-13T02:28:56.073Z,0
2018-12-13T02:30:05.254Z,0
2018-12-13T02:31:13.940Z,0
2018-12-13T02:32:22.610Z,0
2018-12-13T02:33:31.562Z,0
2018-12-13T02:34:40.479Z,0
2018-12-13T02:35:49.421Z,0
2018-12-13T02:36:58.093Z,0
2018-12-13T02:38:12.765Z,0
2018-12-13T02:39:21.736Z,0
2018-12-13T02:40:30.419Z,0
2018-12-13T02:41:39.087Z,0
2018-12-13T02:42:47.763Z,0
2018-12-13T02:43:56.429Z,0
2018-12-13T02:45:05.112Z,0
2018-12-13T02:46:14.044Z,0
2018-12-13T02:47:22.720Z,0
2018-12-13T02:48:31.384Z,0
2018-12-13T02:49:40.059Z,0
2018-12-13T02:50:48.984Z,0
2018-12-13T02:51:57.659Z,0
2018-12-13T02:53:06.618Z,0
2018-12-13T02:54:15.280Z,0
2018-12-13T02:55:23.944Z,0
2018-12-13T02:56:32.608Z,0
2018-12-13T02:57:41.290Z,0
2018-12-13T02:58:49.956Z,0
2018-12-13T02:59:58.633Z,0
2018-12-13T03:01:07.294Z,0
2018-12-13T03:02:16.230Z,0
2018-12-13T03:03:24.954Z,0
2018-12-13T03:04:33.655Z,0
2018-12-13T03:05:42.315Z,0
2018-12-13T03:06:50.990Z,0
2018-12-13T03:07:59.682Z,0
2018-12-13T03:09:08.606Z,0
2018-12-13T03:10:17.541Z,0
2018-12-13T03:11:26.240Z,0
2018-12-13T03:12:34.918Z,0
2018-12-13T03:13:43.602Z,0
2018-12-13T03:14:52.283Z,0
2018-12-13T03:16:00.947Z,0
2018-12-13T03:17:09.887Z,0
2018-12-13T03:18:18.557Z,0
2018-12-13T03:19:27.239Z,0
2018-12-13T03:20:36.149Z,0
2018-12-13T03:21:45.080Z,0
2018-12-13T03:22:54.033Z,0
2018-12-13T03:24:02.701Z,0
2018-12-13T03:25:11.613Z,0
2018-12-13T03:26:20.289Z,0
2018-12-13T03:27:28.949Z,0
2018-12-13T03:28:37.685Z,0
2018-12-13T03:29:46.860Z,0
2018-12-13T03:30:55.599Z,0
2018-12-13T03:32:04.574Z,0
2018-12-13T03:33:13.275Z,0
2018-12-13T03:34:22.225Z,0
2018-12-13T03:35:31.144Z,0
2018-12-13T03:36:40.078Z,0
2018-12-13T03:37:48.753Z,0
2018-12-13T03:38:57.437Z,0
2018-12-13T03:40:06.115Z,0
2018-12-13T03:41:14.781Z,0
2018-12-13T03:42:23.457Z,0
2018-12-13T03:43:32.157Z,0
2018-12-13T03:44:40.816Z,0
2018-12-13T03:45:49.485Z,0
2018-12-13T03:46:58.145Z,0
2018-12-13T03:48:06.873Z,0
2018-12-13T03:49:15.546Z,0
2018-12-13T03:50:24.216Z,0
2018-12-13T03:51:33.162Z,0
2018-12-13T03:52:41.831Z,0
2018-12-13T03:53:50.501Z,0
2018-12-13T03:54:59.170Z,0
2018-12-13T03:56:08.095Z,0
2018-12-13T03:57:16.769Z,0
2018-12-13T03:58:25.445Z,0
2018-12-13T03:59:34.120Z,0
2018-12-13T04:00:42.793Z,0
2018-12-13T04:01:51.709Z,0
2018-12-13T04:03:00.654Z,0
2018-12-13T04:04:09.592Z,0
2018-12-13T04:05:18.530Z,0
2018-12-13T04:06:27.445Z,0
2018-12-13T04:07:36.110Z,0
2018-12-13T04:08:45.040Z,0
2018-12-13T04:09:53.716Z,0
2018-12-13T04:11:02.942Z,0
2018-12-13T04:12:11.612Z,0
2018-12-13T04:13:20.310Z,0
2018-12-13T04:14:29.493Z,0
2018-12-13T04:15:38.181Z,0
2018-12-13T04:16:47.100Z,0
2018-12-13T04:17:55.779Z,0
2018-12-13T04:19:04.705Z,0
2018-12-13T04:20:13.641Z,0
2018-12-13T04:21:22.317Z,0
2018-12-13T04:22:31.270Z,0
2018-12-13T04:23:40.210Z,0
2018-12-13T04:24:49.133Z,0
2018-12-13T04:25:58.054Z,0
2018-12-13T04:27:06.991Z,0
2018-12-13T04:28:15.669Z,0
2018-12-13T04:29:24.609Z,0
2018-12-13T04:30:33.289Z,0
2018-12-13T04:31:42.216Z,0
2018-12-13T04:32:50.896Z,0
2018-12-13T04:33:59.842Z,0
2018-12-13T04:35:08.775Z,0
2018-12-13T04:36:17.857Z,0
2018-12-13T04:37:26.534Z,0
2018-12-13T04:38:41.793Z,0
2018-12-13T04:39:50.484Z,0
2018-12-13T04:40:59.149Z,0
2018-12-13T04:42:07.819Z,0
2018-12-13T04:43:16.495Z,0
2018-12-13T04:44:25.156Z,0
2018-12-13T04:45:33.819Z,0
2018-12-13T04:46:42.491Z,0
2018-12-13T04:47:51.161Z,0
2018-12-13T04:48:59.824Z,0
2018-12-13T04:50:08.772Z,0
2018-12-13T04:51:17.435Z,0
2018-12-13T04:52:26.119Z,0
2018-12-13T04:53:35.035Z,0
2018-12-13T04:54:43.963Z,0
2018-12-13T04:55:52.880Z,0
2018-12-13T04:57:01.551Z,0
2018-12-13T04:58:10.208Z,0
2018-12-13T04:59:18.938Z,0
2018-12-13T05:00:27.593Z,0
2018-12-13T05:01:36.258Z,0
2018-12-13T05:02:44.935Z,0
2018-12-13T05:03:53.600Z,0
2018-12-13T05:05:02.262Z,0
2018-12-13T05:06:10.912Z,0
2018-12-13T05:07:19.586Z,0
2018-12-13T05:08:28.508Z,0
2018-12-13T05:09:37.178Z,0
2018-12-13T05:10:45.831Z,0
2018-12-13T05:11:54.497Z,0
2018-12-13T05:13:03.153Z,0
2018-12-13T05:14:11.822Z,0
2018-12-13T05:15:20.473Z,0
2018-12-13T05:16:29.138Z,0
2018-12-13T05:17:37.809Z,0
2018-12-13T05:18:46.488Z,0
2018-12-13T05:19:55.150Z,0
2018-12-13T05:21:03.813Z,0
2018-12-13T05:22:12.482Z,0
2018-12-13T05:23:21.153Z,0
2018-12-13T05:24:29.827Z,0
2018-12-13T05:25:38.487Z,0
2018-12-13T05:26:47.221Z,0
2018-12-13T05:27:55.886Z,0
2018-12-13T05:29:04.815Z,0
2018-12-13T05:30:13.472Z,0
2018-12-13T05:31:22.141Z,0
2018-12-13T05:32:30.802Z,0
2018-12-13T05:33:39.472Z,0
2018-12-13T05:34:48.174Z,0
2018-12-13T05:35:56.836Z,0
2018-12-13T05:37:05.501Z,0
2018-12-13T05:38:14.166Z,0
2018-12-13T05:39:23.090Z,0
2018-12-13T05:40:31.756Z,0
2018-12-13T05:41:40.455Z,0
2018-12-13T05:42:49.111Z,0
2018-12-13T05:43:57.779Z,0
2018-12-13T05:45:06.445Z,0
2018-12-13T05:46:15.116Z,0
2018-12-13T05:47:23.783Z,0
2018-12-13T05:48:32.705Z,0
2018-12-13T05:49:41.369Z,0
2018-12-13T05:50:50.036Z,0
2018-12-13T05:51:58.688Z,0
2018-12-13T05:53:07.608Z,0
2018-12-13T05:54:16.274Z,0
2018-12-13T05:55:24.948Z,0
2018-12-13T05:56:33.612Z,0
2018-12-13T05:57:42.275Z,0
2018-12-13T05:58:50.943Z,0
2018-12-13T05:59:59.867Z,0
2018-12-13T06:01:08.568Z,0
2018-12-13T06:02:17.230Z,0
2018-12-13T06:03:25.890Z,0
2018-12-13T06:04:34.552Z,0
2018-12-13T06:05:43.218Z,0
2018-12-13T06:06:52.282Z,0
2018-12-13T06:08:01.649Z,0
2018-12-13T06:09:10.310Z,0
2018-12-13T06:10:18.981Z,0
2018-12-13T06:11:27.677Z,0
2018-12-13T06:12:36.347Z,0
2018-12-13T06:13:45.005Z,0
2018-12-13T06:14:53.672Z,0
2018-12-13T06:16:02.335Z,0
2018-12-13T06:17:10.999Z,0
2018-12-13T06:18:19.670Z,0
2018-12-13T06:19:33.261Z,0
2018-12-13T06:20:41.927Z,0
2018-12-13T06:21:50.595Z,0
2018-12-13T06:22:59.262Z,0
2018-12-13T06:24:07.924Z,0
2018-12-13T06:25:16.597Z,0
2018-12-13T06:26:25.572Z,0
2018-12-13T06:27:34.248Z,0
2018-12-13T06:28:42.914Z,0
2018-12-13T06:30:07.201Z,0
2018-12-13T06:31:16.347Z,0
2018-12-13T06:32:25.006Z,0
2018-12-13T06:33:35.026Z,0
2018-12-13T06:34:43.687Z,0
2018-12-13T06:35:52.353Z,0
2018-12-13T06:37:01.021Z,0
2018-12-13T06:38:09.685Z,0
2018-12-13T06:39:18.352Z,0
2018-12-13T06:40:27.014Z,0
2018-12-13T06:41:35.733Z,0
2018-12-13T06:42:44.413Z,0
2018-12-13T06:43:54.527Z,0
2018-12-13T06:45:03.194Z,0
2018-12-13T06:46:11.865Z,0
2018-12-13T06:47:20.526Z,0
2018-12-13T06:48:29.196Z,0
2018-12-13T06:49:37.861Z,0
2018-12-13T06:50:46.782Z,4
2018-12-13T06:51:55.447Z,4
2018-12-13T06:53:04.115Z,0
2018-12-13T06:54:12.780Z,0
2018-12-13T06:55:21.510Z,4
2018-12-13T06:56:30.173Z,4
2018-12-13T06:57:38.831Z,4
2018-12-13T06:58:47.747Z,4
2018-12-13T06:59:56.449Z,4
2018-12-13T07:01:05.395Z,4
2018-12-13T07:02:14.065Z,8
2018-12-13T07:03:22.726Z,8
2018-12-13T07:04:31.391Z,8
2018-12-13T07:05:40.056Z,12
2018-12-13T07:06:48.720Z,8
2018-12-13T07:07:57.397Z,12
2018-12-13T07:09:06.072Z,16
2018-12-13T07:10:14.731Z,16
2018-12-13T07:11:23.395Z,20
2018-12-13T07:12:32.061Z,24
2018-12-13T07:13:40.808Z,28
2018-12-13T07:14:49.464Z,32
2018-12-13T07:15:58.480Z,36
2018-12-13T07:17:07.147Z,40
2018-12-13T07:18:15.817Z,48
2018-12-13T07:19:24.473Z,52
2018-12-13T07:20:33.139Z,60
2018-12-13T07:21:41.801Z,64
2018-12-13T07:22:50.474Z,76
2018-12-13T07:23:59.132Z,84
2018-12-13T07:25:07.810Z,92
2018-12-13T07:26:16.491Z,100
2018-12-13T07:27:25.684Z,108
2018-12-13T07:28:35.569Z,120
2018-12-13T07:29:44.238Z,128
2018-12-13T07:30:52.899Z,136
2018-12-13T07:32:02.130Z,152
2018-12-13T07:33:10.811Z,160
2018-12-13T07:34:19.468Z,168
2018-12-13T07:35:28.146Z,184
2018-12-13T07:36:36.803Z,192
2018-12-13T07:37:45.483Z,204
2018-12-13T07:38:54.172Z,216
2018-12-13T07:40:02.843Z,228
2018-12-13T07:41:11.495Z,236
2018-12-13T07:42:20.174Z,252
2018-12-13T07:43:28.844Z,268
2018-12-13T07:44:37.697Z,284
2018-12-13T07:45:46.618Z,300
2018-12-13T07:46:55.568Z,312
2018-12-13T07:48:04.239Z,324
2018-12-13T07:49:12.912Z,336
2018-12-13T07:50:21.599Z,352
2018-12-13T07:51:30.525Z,360
2018-12-13T07:52:39.193Z,372
2018-12-13T07:53:47.854Z,384
2018-12-13T07:54:56.526Z,392
2018-12-13T07:56:05.707Z,408
2018-12-13T07:57:14.384Z,420
2018-12-13T07:58:23.438Z,428
2018-12-13T07:59:32.410Z,444
2018-12-13T08:00:41.069Z,460
2018-12-13T08:01:49.756Z,476
2018-12-13T08:02:58.425Z,500
2018-12-13T08:04:07.362Z,524
2018-12-13T08:05:16.030Z,544
2018-12-13T08:06:24.947Z,568
2018-12-13T08:07:33.640Z,584
2018-12-13T08:08:42.306Z,604
2018-12-13T08:09:50.986Z,616
2018-12-13T08:10:59.842Z,632
2018-12-13T08:12:08.521Z,644
2018-12-13T08:13:17.179Z,672
2018-12-13T08:14:26.103Z,684
2018-12-13T08:15:34.774Z,692
2018-12-13T08:16:43.447Z,708
2018-12-13T08:17:53.238Z,720
2018-12-13T08:19:01.914Z,736
2018-12-13T08:20:10.831Z,764
2018-12-13T08:21:19.494Z,788
2018-12-13T08:22:28.148Z,820
2018-12-13T08:23:36.824Z,840
2018-12-13T08:24:45.494Z,868
2018-12-13T08:25:54.158Z,880
2018-12-13T08:27:02.830Z,920
2018-12-13T08:28:11.750Z,932
2018-12-13T08:29:20.435Z,956
2018-12-13T08:30:29.100Z,988
2018-12-13T08:31:37.786Z,1024
2018-12-13T08:32:46.460Z,1076
2018-12-13T08:33:55.460Z,1112
2018-12-13T08:35:04.403Z,1108
2018-12-13T08:36:13.078Z,1120
2018-12-13T08:37:21.741Z,1168
2018-12-13T08:38:34.069Z,1208
2018-12-13T08:39:42.736Z,1220
2018-12-13T08:40:51.660Z,1300
2018-12-13T08:42:00.330Z,1348
2018-12-13T08:43:08.997Z,1360
2018-12-13T08:44:17.660Z,1396
2018-12-13T08:45:26.624Z,1440
2018-12-13T08:46:40.899Z,1476
2018-12-13T08:47:49.567Z,1476
2018-12-13T08:48:58.507Z,1488
2018-12-13T08:50:07.171Z,1468
2018-12-13T08:51:15.855Z,1444
2018-12-13T08:52:24.781Z,1404
2018-12-13T08:53:33.449Z,1448
2018-12-13T08:54:42.110Z,1468
2018-12-13T08:55:50.781Z,1512
2018-12-13T08:56:59.448Z,1548
2018-12-13T08:58:08.117Z,1548
2018-12-13T08:59:16.781Z,1584
2018-12-13T09:00:25.450Z,1624
2018-12-13T09:01:34.372Z,1572
2018-12-13T09:02:43.041Z,1612
2018-12-13T09:03:51.710Z,1700
2018-12-13T09:05:00.379Z,1628
2018-12-13T09:06:09.045Z,1644
2018-12-13T09:07:17.985Z,1636
2018-12-13T09:08:33.423Z,1660
2018-12-13T09:09:42.567Z,1600
2018-12-13T09:10:51.231Z,1700
2018-12-13T09:11:59.898Z,1656
2018-12-13T09:13:08.573Z,1624
2018-12-13T09:14:17.236Z,1616
2018-12-13T09:15:26.375Z,1612
2018-12-13T09:16:38.092Z,1620
2018-12-13T09:17:46.759Z,1604
2018-12-13T09:18:55.423Z,1628
2018-12-13T09:20:04.089Z,1652
2018-12-13T09:21:13.008Z,1652
2018-12-13T09:22:22.175Z,1644
2018-12-13T09:23:30.851Z,1660
2018-12-13T09:24:39.515Z,1692
2018-12-13T09:25:48.181Z,1692
2018-12-13T09:26:56.842Z,1692
2018-12-13T09:28:05.518Z,1700
2018-12-13T09:29:14.197Z,1696
2018-12-13T09:30:22.866Z,1708
2018-12-13T09:31:31.523Z,1716
2018-12-13T09:32:41.517Z,1720
2018-12-13T09:33:50.544Z,1728
2018-12-13T09:34:59.228Z,1764
2018-12-13T09:36:08.141Z,1784
2018-12-13T09:37:17.058Z,1804
2018-12-13T09:38:25.739Z,1868
2018-12-13T09:39:34.410Z,1920
2018-12-13T09:40:43.338Z,1940
2018-12-13T09:41:52.087Z,2016
2018-12-13T09:43:00.767Z,2012
2018-12-13T09:44:09.706Z,2008
2018-12-13T09:45:18.383Z,2024
2018-12-13T09:46:27.049Z,2056
2018-12-13T09:47:35.719Z,2060
2018-12-13T09:48:44.385Z,2080
2018-12-13T09:49:53.057Z,2076
2018-12-13T09:51:01.715Z,2112
2018-12-13T09:52:10.450Z,2088
2018-12-13T09:53:19.111Z,2100
2018-12-13T09:54:27.792Z,2096
2018-12-13T09:55:36.466Z,2084
2018-12-13T09:56:45.134Z,2108
2018-12-13T09:57:54.057Z,2100
2018-12-13T09:59:02.723Z,2124
2018-12-13T10:00:11.398Z,2172
2018-12-13T10:01:20.060Z,2180
2018-12-13T10:02:28.747Z,2196
2018-12-13T10:03:37.679Z,2232
2018-12-13T10:04:46.617Z,2276
2018-12-13T10:05:55.304Z,2304
2018-12-13T10:07:04.017Z,2312
2018-12-13T10:08:12.732Z,2392
2018-12-13T10:09:21.447Z,2380
2018-12-13T10:10:30.114Z,2368
2018-12-13T10:11:39.035Z,2352
2018-12-13T10:12:48.754Z,2328
2018-12-13T10:13:57.680Z,2304
2018-12-13T10:15:06.358Z,2420
2018-12-13T10:16:15.029Z,2396
2018-12-13T10:17:23.709Z,2368
2018-12-13T10:18:32.367Z,2412
2018-12-13T10:19:41.302Z,2540
2018-12-13T10:20:50.029Z,2572
2018-12-13T10:21:58.712Z,2588
2018-12-13T10:23:07.376Z,2468
2018-12-13T10:24:16.351Z,2432
2018-12-13T10:25:25.297Z,2408
2018-12-13T10:26:34.228Z,2368
2018-12-13T10:27:42.901Z,2332
2018-12-13T10:28:51.576Z,2316
2018-12-13T10:30:00.503Z,2248
2018-12-13T10:31:09.163Z,2224
2018-12-13T10:32:17.842Z,2216
2018-12-13T10:33:26.526Z,2228
2018-12-13T10:34:35.198Z,2216
2018-12-13T10:35:43.874Z,2268
2018-12-13T10:36:52.532Z,2300
2018-12-13T10:38:01.207Z,2292
2018-12-13T10:39:09.869Z,2272
2018-12-13T10:40:18.554Z,2300
2018-12-13T10:41:27.608Z,2332
2018-12-13T10:42:36.343Z,2348
2018-12-13T10:43:45.009Z,2340
2018-12-13T10:44:53.950Z,2368
2018-12-13T10:46:02.616Z,2404
2018-12-13T10:47:11.292Z,2432
2018-12-13T10:48:19.963Z,2432
2018-12-13T10:49:28.668Z,2440
2018-12-13T10:50:37.375Z,2440
2018-12-13T10:51:46.294Z,2444
2018-12-13T10:52:54.985Z,2448
2018-12-13T10:54:03.665Z,2460
2018-12-13T10:55:12.347Z,2480
2018-12-13T10:56:21.010Z,2472
2018-12-13T10:57:29.684Z,2508
2018-12-13T10:58:38.348Z,2488
2018-12-13T10:59:47.135Z,2504
2018-12-13T11:00:55.923Z,2512
2018-12-13T11:02:04.918Z,2496
2018-12-13T11:03:13.574Z,2468
2018-12-13T11:04:22.266Z,2484
2018-12-13T11:05:30.968Z,2608
2018-12-13T11:06:39.640Z,2600
2018-12-13T11:07:48.305Z,2548
2018-12-13T11:09:03.843Z,2500
2018-12-13T11:10:12.831Z,2532
2018-12-13T11:11:21.562Z,2584
2018-12-13T11:12:30.506Z,2660
2018-12-13T11:13:39.177Z,2664
2018-12-13T11:14:47.874Z,2696
2018-12-13T11:15:56.607Z,2636
2018-12-13T11:17:05.545Z,2740
2018-12-13T11:18:14.515Z,2736
2018-12-13T11:19:23.230Z,2748
2018-12-13T11:20:32.248Z,2692
2018-12-13T11:21:41.050Z,2684
2018-12-13T11:22:49.731Z,2644
2018-12-13T11:23:58.537Z,2588
2018-12-13T11:25:07.723Z,2536
2018-12-13T11:26:16.448Z,2500
2018-12-13T11:27:25.230Z,2508
2018-12-13T11:28:33.931Z,2420
2018-12-13T11:29:42.597Z,2460
2018-12-13T11:30:51.270Z,2512
2018-12-13T11:32:00.270Z,2428
2018-12-13T11:33:09.194Z,2336
2018-12-13T11:34:17.855Z,2384
2018-12-13T11:35:26.527Z,2220
2018-12-13T11:36:35.262Z,2256
2018-12-13T11:37:43.951Z,2352
2018-12-13T11:38:52.694Z,2492
2018-12-13T11:40:01.375Z,2540
2018-12-13T11:41:10.061Z,2272
2018-12-13T11:42:18.724Z,2260
2018-12-13T11:43:27.741Z,2184
2018-12-13T11:44:36.678Z,1992
2018-12-13T11:45:45.394Z,2104
2018-12-13T11:46:54.067Z,1896
2018-12-13T11:48:02.736Z,1664
2018-12-13T11:49:16.749Z,1484
2018-12-13T11:50:26.280Z,1412
2018-12-13T11:51:35.217Z,1296
2018-12-13T11:52:44.071Z,1316
2018-12-13T11:53:53.835Z,1676
2018-12-13T11:55:02.606Z,1548
2018-12-13T11:56:11.890Z,1384
2018-12-13T11:57:21.006Z,1408
2018-12-13T11:58:29.706Z,1216
2018-12-13T11:59:39.006Z,1208
2018-12-13T12:00:47.709Z,1356
2018-12-13T12:01:56.443Z,1604
2018-12-13T12:03:05.140Z,1784
2018-12-13T12:04:14.117Z,1952
2018-12-13T12:05:22.791Z,1860
2018-12-13T12:06:31.455Z,1768
2018-12-13T12:07:40.208Z,1720
2018-12-13T12:08:48.894Z,1676
2018-12-13T12:09:57.781Z,1648
2018-12-13T12:11:07.436Z,1688
2018-12-13T12:12:16.099Z,1724
2018-12-13T12:13:24.784Z,1748
2018-12-13T12:14:33.748Z,1848
2018-12-13T12:15:42.684Z,1864
2018-12-13T12:16:51.373Z,2012
2018-12-13T12:18:00.105Z,2156
2018-12-13T12:19:08.817Z,2132
2018-12-13T12:20:17.960Z,2168
2018-12-13T12:21:26.629Z,2180
2018-12-13T12:22:35.548Z,2128
2018-12-13T12:23:44.232Z,2016
2018-12-13T12:24:52.902Z,2024
2018-12-13T12:26:01.646Z,2084
2018-12-13T12:27:10.842Z,2100
2018-12-13T12:28:19.532Z,2016
2018-12-13T12:29:28.228Z,2028
2018-12-13T12:30:36.966Z,2020
2018-12-13T12:31:45.877Z,1976
2018-12-13T12:32:54.563Z,2056
2018-12-13T12:34:03.629Z,2060
2018-12-13T12:35:12.365Z,2064
2018-12-13T12:36:21.047Z,2184
2018-12-13T12:37:29.967Z,2272
2018-12-13T12:38:38.639Z,2304
2018-12-13T12:39:47.557Z,2304
2018-12-13T12:40:56.225Z,2320
2018-12-13T12:42:06.349Z,2296
2018-12-13T12:43:15.019Z,2464
2018-12-13T12:44:23.691Z,2312
2018-12-13T12:45:32.359Z,2100
2018-12-13T12:46:41.038Z,1728
2018-12-13T12:47:49.700Z,1588
2018-12-13T12:48:58.378Z,1684
2018-12-13T12:50:07.297Z,1800
2018-12-13T12:51:15.987Z,1816
2018-12-13T12:52:24.651Z,1680
2018-12-13T12:53:33.331Z,1368
2018-12-13T12:54:41.992Z,1404
2018-12-13T12:55:50.661Z,1364
2018-12-13T12:56:59.389Z,1148
2018-12-13T12:58:08.321Z,1028
2018-12-13T12:59:16.987Z,1200
2018-12-13T13:00:25.652Z,1236
2018-12-13T13:01:34.323Z,1104
2018-12-13T13:02:42.989Z,1036
2018-12-13T13:03:51.717Z,872
2018-12-13T13:05:00.641Z,1092
2018-12-13T13:06:09.320Z,1336
2018-12-13T13:07:17.977Z,1256
2018-12-13T13:08:26.652Z,1156
2018-12-13T13:09:35.319Z,1204
2018-12-13T13:10:44.020Z,1204
2018-12-13T13:11:52.679Z,1228
2018-12-13T13:13:01.352Z,1352
2018-12-13T13:14:10.029Z,1304
2018-12-13T13:15:18.709Z,1268
2018-12-13T13:16:27.631Z,1272
2018-12-13T13:17:36.305Z,1240
2018-12-13T13:18:45.585Z,1312
2018-12-13T13:19:54.512Z,1288
2018-12-13T13:21:03.193Z,1240
2018-12-13T13:22:11.856Z,1212
2018-12-13T13:23:20.528Z,1188
2018-12-13T13:24:29.196Z,1092
2018-12-13T13:25:37.867Z,1044
2018-12-13T13:26:46.530Z,1104
2018-12-13T13:27:55.209Z,1124
2018-12-13T13:29:03.878Z,1044
2018-12-13T13:30:12.553Z,1168
2018-12-13T13:31:21.223Z,1192
2018-12-13T13:32:29.949Z,1184
2018-12-13T13:33:38.618Z,1168
2018-12-13T13:34:47.288Z,1152
2018-12-13T13:35:55.953Z,1144
2018-12-13T13:37:04.625Z,1108
2018-12-13T13:38:13.293Z,1056
2018-12-13T13:39:21.959Z,1028
2018-12-13T13:40:30.637Z,988
2018-12-13T13:41:39.308Z,948
2018-12-13T13:42:47.973Z,928
2018-12-13T13:43:56.634Z,896
2018-12-13T13:45:05.307Z,844
2018-12-13T13:46:13.972Z,788
2018-12-13T13:47:22.645Z,744
2018-12-13T13:48:31.316Z,712
2018-12-13T13:49:39.991Z,676
2018-12-13T13:50:48.654Z,636
2018-12-13T13:51:57.329Z,576
2018-12-13T13:53:06.001Z,568
2018-12-13T13:54:14.933Z,592
2018-12-13T13:55:23.601Z,604
2018-12-13T13:56:32.522Z,596
2018-12-13T13:57:41.189Z,612
2018-12-13T13:58:50.103Z,612
2018-12-13T13:59:58.769Z,664
2018-12-13T14:01:07.691Z,676
2018-12-13T14:02:16.362Z,684
2018-12-13T14:03:25.032Z,684
2018-12-13T14:04:33.957Z,684
2018-12-13T14:05:45.267Z,692
2018-12-13T14:06:58.151Z,676
2018-12-13T14:08:10.761Z,660
2018-12-13T14:09:23.160Z,656
2018-12-13T14:10:35.337Z,632
2018-12-13T14:11:46.973Z,616
2018-12-13T14:12:58.626Z,608
2018-12-13T14:14:10.520Z,592
2018-12-13T14:15:19.616Z,572
2018-12-13T14:16:28.300Z,548
2018-12-13T14:17:37.000Z,524
2018-12-13T14:18:45.921Z,512
2018-12-13T14:19:54.598Z,512
2018-12-13T14:21:03.263Z,504
2018-12-13T14:22:11.943Z,492
2018-12-13T14:23:20.618Z,484
2018-12-13T14:24:29.282Z,476
2018-12-13T14:25:37.951Z,472
2018-12-13T14:26:46.673Z,460
2018-12-13T14:27:55.378Z,456
2018-12-13T14:29:04.045Z,436
2018-12-13T14:30:12.733Z,424
2018-12-13T14:31:21.661Z,408
2018-12-13T14:32:30.331Z,396
2018-12-13T14:33:38.996Z,388
2018-12-13T14:34:47.667Z,380
2018-12-13T14:35:56.337Z,372
2018-12-13T14:37:05.016Z,360
2018-12-13T14:38:13.695Z,352
2018-12-13T14:39:22.364Z,356
2018-12-13T14:40:31.046Z,368
2018-12-13T14:41:39.711Z,372
2018-12-13T14:42:48.382Z,360
2018-12-13T14:43:57.048Z,348
2018-12-13T14:45:05.984Z,324
2018-12-13T14:46:14.654Z,304
2018-12-13T14:47:23.331Z,288
2018-12-13T14:48:31.993Z,276
2018-12-13T14:49:40.664Z,268
2018-12-13T14:50:49.331Z,272
2018-12-13T14:51:58.001Z,260
2018-12-13T14:53:06.671Z,252
2018-12-13T14:54:15.348Z,240
2018-12-13T14:55:24.274Z,236
2018-12-13T14:56:32.948Z,240
2018-12-13T14:57:41.617Z,252
2018-12-13T14:58:50.328Z,244
2018-12-13T14:59:59.004Z,240
2018-12-13T15:01:07.931Z,228
2018-12-13T15:02:16.630Z,220
2018-12-13T15:03:25.552Z,204
2018-12-13T15:04:34.251Z,192
2018-12-13T15:05:42.923Z,180
2018-12-13T15:06:51.604Z,164
2018-12-13T15:08:00.268Z,148
2018-12-13T15:09:08.942Z,140
2018-12-13T15:10:17.608Z,128
2018-12-13T15:11:26.315Z,116
2018-12-13T15:12:34.998Z,108
2018-12-13T15:13:43.671Z,96
2018-12-13T15:14:52.342Z,88
2018-12-13T15:16:01.267Z,84
2018-12-13T15:17:09.939Z,72
2018-12-13T15:18:18.608Z,68
2018-12-13T15:19:27.283Z,64
2018-12-13T15:20:35.943Z,56
2018-12-13T15:21:44.620Z,48
2018-12-13T15:22:53.286Z,44
2018-12-13T15:24:01.960Z,40
2018-12-13T15:25:10.615Z,36
2018-12-13T15:26:19.289Z,32
2018-12-13T15:27:27.961Z,28
2018-12-13T15:28:36.636Z,24
2018-12-13T15:29:45.303Z,20
2018-12-13T15:30:53.962Z,20
2018-12-13T15:32:06.057Z,16
2018-12-13T15:33:14.719Z,16
2018-12-13T15:34:23.401Z,12
2018-12-13T15:35:32.167Z,12
2018-12-13T15:36:41.095Z,8
2018-12-13T15:37:49.763Z,8
2018-12-13T15:38:58.435Z,8
2018-12-13T15:40:07.355Z,8
2018-12-13T15:41:16.382Z,8
2018-12-13T15:42:25.046Z,4
2018-12-13T15:43:33.724Z,4
2018-12-13T15:44:42.390Z,4
2018-12-13T15:45:51.055Z,4
2018-12-13T15:46:59.718Z,0
2018-12-13T15:48:08.385Z,0
2018-12-13T15:49:17.070Z,4
2018-12-13T15:50:25.742Z,4
2018-12-13T15:51:34.667Z,0
2018-12-13T15:52:43.332Z,0
2018-12-13T15:53:53.211Z,0
2018-12-13T15:55:01.876Z,0
2018-12-13T15:56:10.554Z,0
2018-12-13T15:57:19.477Z,0
2018-12-13T15:58:28.151Z,0
2018-12-13T15:59:36.812Z,0
2018-12-13T16:00:45.485Z,0
2018-12-13T16:01:54.202Z,0
2018-12-13T16:03:02.879Z,0
2018-12-13T16:04:11.556Z,0
2018-12-13T16:05:20.225Z,0
2018-12-13T16:06:28.902Z,0
2018-12-13T16:07:37.563Z,0
2018-12-13T16:08:46.244Z,0
2018-12-13T16:09:54.902Z,0
2018-12-13T16:11:10.289Z,0